sensor_id;sensor_type;location;lat;lon;timestamp;pressure;altitude;pressure_sealevel;temperature;humidity
8286;BME280;4181;43.416;24.598;2022-10-16T00:00:44;100802.22;;;10.39;100.00
8286;BME280;4181;43.416;24.598;2022-10-16T00:03:10;100805.53;;;10.29;100.00
8286;BME280;4181;43.416;24.598;2022-10-16T00:05:43;100813.63;;;10.47;100.00
8286;BME280;4181;43.416;24.598;2022-10-16T00:08:10;100829.78;;;10.60;100.00
8286;BME280;4181;43.416;24.598;2022-10-16T00:10:37;100842.03;;;10.69;100.00
8286;BME280;4181;43.416;24.598;2022-10-16T00:13:03;100850.47;;;10.68;100.00
8286;BME280;4181;43.416;24.598;2022-10-16T00:15:32;100858.75;;;10.61;100.00
8286;BME280;4181;43.416;24.598;2022-10-16T00:17:58;100867.97;;;10.60;100.00
8286;BME280;4181;43.416;24.598;2022-10-16T00:20:23;100880.22;;;10.58;100.00
8286;BME280;4181;43.416;24.598;2022-10-16T00:22:49;100888.03;;;10.54;100.00
8286;BME280;4181;43.416;24.598;2022-10-16T00:25:14;100864.38;;;10.48;100.00
8286;BME280;4181;43.416;24.598;2022-10-16T00:27:40;100888.38;;;10.46;100.00
8286;BME280;4181;43.416;24.598;2022-10-16T00:30:06;100869.13;;;10.41;100.00
8286;BME280;4181;43.416;24.598;2022-10-16T00:32:33;100867.06;;;10.37;100.00
8286;BME280;4181;43.416;24.598;2022-10-16T00:34:58;100868.19;;;10.47;100.00
8286;BME280;4181;43.416;24.598;2022-10-16T00:37:24;100867.25;;;10.53;100.00
8286;BME280;4181;43.416;24.598;2022-10-16T00:39:49;100882.59;;;10.66;100.00
8286;BME280;4181;43.416;24.598;2022-10-16T00:42:17;100878.78;;;10.67;100.00
8286;BME280;4181;43.416;24.598;2022-10-16T00:44:50;100890.06;;;10.70;100.00
8286;BME280;4181;43.416;24.598;2022-10-16T00:47:21;100889.47;;;10.68;100.00
8286;BME280;4181;43.416;24.598;2022-10-16T00:49:50;100886.59;;;10.63;100.00
8286;BME280;4181;43.416;24.598;2022-10-16T00:52:16;100889.22;;;10.58;100.00
8286;BME280;4181;43.416;24.598;2022-10-16T00:54:43;100898.25;;;10.59;100.00
8286;BME280;4181;43.416;24.598;2022-10-16T00:57:09;100907.72;;;10.56;100.00
8286;BME280;4181;43.416;24.598;2022-10-16T00:59:35;100912.34;;;10.56;100.00
8286;BME280;4181;43.416;24.598;2022-10-16T01:02:02;100913.34;;;10.43;100.00
8286;BME280;4181;43.416;24.598;2022-10-16T01:04:41;100915.41;;;10.48;100.00
8286;BME280;4181;43.416;24.598;2022-10-16T01:10:06;100924.41;;;10.48;100.00
8286;BME280;4181;43.416;24.598;2022-10-16T01:15:18;100921.53;;;10.43;100.00
8286;BME280;4181;43.416;24.598;2022-10-16T01:17:56;100927.94;;;10.37;100.00
8286;BME280;4181;43.416;24.598;2022-10-16T01:21:06;100929.69;;;10.32;100.00
8286;BME280;4181;43.416;24.598;2022-10-16T01:23:38;100929.34;;;10.28;100.00
8286;BME280;4181;43.416;24.598;2022-10-16T01:31:51;100915.75;;;10.03;100.00
8286;BME280;4181;43.416;24.598;2022-10-16T01:34:28;100912.59;;;9.88;100.00
8286;BME280;4181;43.416;24.598;2022-10-16T01:37:02;100904.03;;;9.85;100.00
8286;BME280;4181;43.416;24.598;2022-10-16T01:39:31;100899.66;;;9.84;100.00
8286;BME280;4181;43.416;24.598;2022-10-16T01:42:06;100899.56;;;9.72;100.00
8286;BME280;4181;43.416;24.598;2022-10-16T01:44:34;100880.03;;;9.75;100.00
8286;BME280;4181;43.416;24.598;2022-10-16T01:47:01;100868.31;;;9.57;100.00
8286;BME280;4181;43.416;24.598;2022-10-16T01:49:31;100881.94;;;9.57;100.00
8286;BME280;4181;43.416;24.598;2022-10-16T01:52:00;100883.72;;;9.45;100.00
8286;BME280;4181;43.416;24.598;2022-10-16T01:54:28;100902.13;;;9.31;100.00
8286;BME280;4181;43.416;24.598;2022-10-16T01:56:56;100914.50;;;9.27;100.00
8286;BME280;4181;43.416;24.598;2022-10-16T01:59:25;100911.16;;;9.25;100.00
8286;BME280;4181;43.416;24.598;2022-10-16T02:01:56;100916.56;;;9.32;100.00
8286;BME280;4181;43.416;24.598;2022-10-16T02:04:29;100916.16;;;9.28;100.00
8286;BME280;4181;43.416;24.598;2022-10-16T02:06:56;100913.44;;;9.28;100.00
8286;BME280;4181;43.416;24.598;2022-10-16T02:09:22;100896.69;;;9.07;100.00
8286;BME280;4181;43.416;24.598;2022-10-16T02:11:47;100915.19;;;9.23;100.00
8286;BME280;4181;43.416;24.598;2022-10-16T02:14:15;100920.19;;;9.26;100.00
8286;BME280;4181;43.416;24.598;2022-10-16T02:16:43;100920.69;;;9.16;100.00
8286;BME280;4181;43.416;24.598;2022-10-16T02:19:08;100923.63;;;9.15;100.00
8286;BME280;4181;43.416;24.598;2022-10-16T02:24:41;100858.47;;;8.95;100.00
8286;BME280;4181;43.416;24.598;2022-10-16T02:29:41;100856.63;;;9.14;100.00
8286;BME280;4181;43.416;24.598;2022-10-16T02:32:17;100878.50;;;9.25;100.00
8286;BME280;4181;43.416;24.598;2022-10-16T02:34:45;100876.84;;;9.24;100.00
8286;BME280;4181;43.416;24.598;2022-10-16T02:37:12;100889.31;;;9.32;100.00
8286;BME280;4181;43.416;24.598;2022-10-16T02:39:38;100892.81;;;9.39;100.00
8286;BME280;4181;43.416;24.598;2022-10-16T02:42:12;100896.44;;;9.33;100.00
8286;BME280;4181;43.416;24.598;2022-10-16T02:44:38;100891.09;;;9.20;100.00
8286;BME280;4181;43.416;24.598;2022-10-16T02:47:04;100888.19;;;9.21;100.00
8286;BME280;4181;43.416;24.598;2022-10-16T02:49:29;100897.50;;;9.32;100.00
8286;BME280;4181;43.416;24.598;2022-10-16T02:51:55;100900.66;;;9.29;100.00
8286;BME280;4181;43.416;24.598;2022-10-16T02:54:20;100905.66;;;9.32;100.00
8286;BME280;4181;43.416;24.598;2022-10-16T02:56:46;100914.59;;;9.39;100.00
8286;BME280;4181;43.416;24.598;2022-10-16T02:59:11;100935.31;;;9.40;100.00
8286;BME280;4181;43.416;24.598;2022-10-16T03:01:36;100921.13;;;9.38;100.00
8286;BME280;4181;43.416;24.598;2022-10-16T03:04:02;100922.78;;;9.39;100.00
8286;BME280;4181;43.416;24.598;2022-10-16T03:06:27;100927.06;;;9.28;100.00
8286;BME280;4181;43.416;24.598;2022-10-16T03:08:53;100930.91;;;9.21;100.00
8286;BME280;4181;43.416;24.598;2022-10-16T03:11:18;100921.97;;;9.14;100.00
8286;BME280;4181;43.416;24.598;2022-10-16T03:13:44;100926.56;;;8.88;100.00
8286;BME280;4181;43.416;24.598;2022-10-16T03:16:09;100907.19;;;8.78;100.00
8286;BME280;4181;43.416;24.598;2022-10-16T03:18:35;100893.50;;;8.60;100.00
8286;BME280;4181;43.416;24.598;2022-10-16T03:21:00;100870.56;;;8.50;100.00
8286;BME280;4181;43.416;24.598;2022-10-16T03:23:26;100864.31;;;8.49;100.00
8286;BME280;4181;43.416;24.598;2022-10-16T03:25:51;100862.00;;;8.46;100.00
8286;BME280;4181;43.416;24.598;2022-10-16T03:28:17;100866.88;;;8.38;100.00
8286;BME280;4181;43.416;24.598;2022-10-16T03:30:43;100870.38;;;8.45;100.00
8286;BME280;4181;43.416;24.598;2022-10-16T03:33:09;100864.53;;;8.41;100.00
8286;BME280;4181;43.416;24.598;2022-10-16T03:35:34;100871.22;;;8.45;100.00
8286;BME280;4181;43.416;24.598;2022-10-16T03:38:00;100871.63;;;8.49;100.00
8286;BME280;4181;43.416;24.598;2022-10-16T03:40:25;100869.06;;;8.54;100.00
8286;BME280;4181;43.416;24.598;2022-10-16T03:42:51;100875.94;;;8.56;100.00
8286;BME280;4181;43.416;24.598;2022-10-16T03:45:17;100875.34;;;8.54;100.00
8286;BME280;4181;43.416;24.598;2022-10-16T03:47:42;100878.13;;;8.41;100.00
8286;BME280;4181;43.416;24.598;2022-10-16T03:50:08;100871.31;;;8.32;100.00
8286;BME280;4181;43.416;24.598;2022-10-16T03:52:34;100872.28;;;8.44;100.00
8286;BME280;4181;43.416;24.598;2022-10-16T03:54:59;100881.44;;;8.50;100.00
8286;BME280;4181;43.416;24.598;2022-10-16T03:57:25;100876.88;;;8.44;100.00
8286;BME280;4181;43.416;24.598;2022-10-16T03:59:50;100880.84;;;8.41;100.00
8286;BME280;4181;43.416;24.598;2022-10-16T04:02:16;100868.56;;;8.39;100.00
8286;BME280;4181;43.416;24.598;2022-10-16T04:04:41;100876.53;;;8.34;100.00
8286;BME280;4181;43.416;24.598;2022-10-16T04:07:07;100873.81;;;8.34;100.00
8286;BME280;4181;43.416;24.598;2022-10-16T04:09:32;100864.22;;;8.25;100.00
8286;BME280;4181;43.416;24.598;2022-10-16T04:11:57;100864.69;;;8.15;100.00
8286;BME280;4181;43.416;24.598;2022-10-16T04:14:23;100869.91;;;8.23;100.00
8286;BME280;4181;43.416;24.598;2022-10-16T04:16:48;100856.59;;;8.40;100.00
8286;BME280;4181;43.416;24.598;2022-10-16T04:19:14;100849.91;;;8.42;100.00
8286;BME280;4181;43.416;24.598;2022-10-16T04:21:39;100847.81;;;8.44;100.00
8286;BME280;4181;43.416;24.598;2022-10-16T04:24:05;100864.72;;;8.46;100.00
8286;BME280;4181;43.416;24.598;2022-10-16T04:26:30;100868.16;;;8.35;100.00
8286;BME280;4181;43.416;24.598;2022-10-16T04:28:56;100875.00;;;8.44;100.00
8286;BME280;4181;43.416;24.598;2022-10-16T04:31:21;100881.25;;;8.45;100.00
8286;BME280;4181;43.416;24.598;2022-10-16T04:33:47;100887.63;;;8.32;100.00
8286;BME280;4181;43.416;24.598;2022-10-16T04:36:12;100855.00;;;8.32;100.00
8286;BME280;4181;43.416;24.598;2022-10-16T04:38:38;100863.84;;;8.15;100.00
8286;BME280;4181;43.416;24.598;2022-10-16T04:41:05;100860.19;;;7.96;100.00
8286;BME280;4181;43.416;24.598;2022-10-16T04:43:31;100854.16;;;7.94;100.00
8286;BME280;4181;43.416;24.598;2022-10-16T04:45:57;100855.19;;;7.93;100.00
8286;BME280;4181;43.416;24.598;2022-10-16T04:48:22;100853.63;;;8.10;100.00
8286;BME280;4181;43.416;24.598;2022-10-16T04:50:48;100865.47;;;8.29;100.00
8286;BME280;4181;43.416;24.598;2022-10-16T04:53:13;100842.38;;;8.38;100.00
8286;BME280;4181;43.416;24.598;2022-10-16T04:55:39;100843.91;;;8.58;100.00
8286;BME280;4181;43.416;24.598;2022-10-16T04:58:06;100864.97;;;8.94;100.00
8286;BME280;4181;43.416;24.598;2022-10-16T05:00:32;100858.28;;;9.15;100.00
8286;BME280;4181;43.416;24.598;2022-10-16T05:02:57;100879.13;;;9.45;100.00
8286;BME280;4181;43.416;24.598;2022-10-16T05:05:25;100890.56;;;9.54;100.00
8286;BME280;4181;43.416;24.598;2022-10-16T05:07:50;100891.91;;;9.45;100.00
8286;BME280;4181;43.416;24.598;2022-10-16T05:10:16;100900.13;;;9.63;100.00
8286;BME280;4181;43.416;24.598;2022-10-16T05:12:41;100918.56;;;9.79;100.00
8286;BME280;4181;43.416;24.598;2022-10-16T05:15:07;100946.44;;;9.99;100.00
8286;BME280;4181;43.416;24.598;2022-10-16T05:17:33;100963.72;;;10.11;100.00
8286;BME280;4181;43.416;24.598;2022-10-16T05:19:58;100995.84;;;10.27;100.00
8286;BME280;4181;43.416;24.598;2022-10-16T05:22:24;100988.94;;;10.43;100.00
8286;BME280;4181;43.416;24.598;2022-10-16T05:24:50;101014.88;;;10.63;100.00
8286;BME280;4181;43.416;24.598;2022-10-16T05:27:15;101006.31;;;10.78;100.00
8286;BME280;4181;43.416;24.598;2022-10-16T05:29:48;101032.69;;;10.95;100.00
8286;BME280;4181;43.416;24.598;2022-10-16T05:32:15;101037.06;;;11.14;100.00
8286;BME280;4181;43.416;24.598;2022-10-16T05:34:41;101039.72;;;11.32;100.00
8286;BME280;4181;43.416;24.598;2022-10-16T05:37:06;101043.66;;;11.36;100.00
8286;BME280;4181;43.416;24.598;2022-10-16T05:39:33;101050.69;;;11.56;100.00
8286;BME280;4181;43.416;24.598;2022-10-16T05:41:58;101050.59;;;11.74;100.00
8286;BME280;4181;43.416;24.598;2022-10-16T05:44:24;101045.38;;;11.95;100.00
8286;BME280;4181;43.416;24.598;2022-10-16T05:46:49;101061.44;;;12.15;100.00
8286;BME280;4181;43.416;24.598;2022-10-16T05:49:16;101054.38;;;12.42;100.00
8286;BME280;4181;43.416;24.598;2022-10-16T05:51:42;101062.44;;;12.60;100.00
8286;BME280;4181;43.416;24.598;2022-10-16T05:54:08;101062.66;;;12.70;100.00
8286;BME280;4181;43.416;24.598;2022-10-16T05:56:34;101061.28;;;12.84;100.00
8286;BME280;4181;43.416;24.598;2022-10-16T05:58:59;101049.44;;;12.95;100.00
8286;BME280;4181;43.416;24.598;2022-10-16T06:01:24;101052.94;;;13.19;100.00
8286;BME280;4181;43.416;24.598;2022-10-16T06:03:51;101064.88;;;13.41;100.00
8286;BME280;4181;43.416;24.598;2022-10-16T06:06:20;101063.41;;;13.66;100.00
8286;BME280;4181;43.416;24.598;2022-10-16T06:08:46;101058.16;;;13.81;100.00
8286;BME280;4181;43.416;24.598;2022-10-16T06:11:17;101072.28;;;13.90;100.00
8286;BME280;4181;43.416;24.598;2022-10-16T06:13:43;101075.19;;;14.00;100.00
8286;BME280;4181;43.416;24.598;2022-10-16T06:16:11;101076.00;;;14.17;100.00
8286;BME280;4181;43.416;24.598;2022-10-16T06:18:37;101084.13;;;14.12;100.00
8286;BME280;4181;43.416;24.598;2022-10-16T06:21:11;101096.75;;;13.91;100.00
8286;BME280;4181;43.416;24.598;2022-10-16T06:23:37;101090.31;;;14.02;100.00
8286;BME280;4181;43.416;24.598;2022-10-16T06:26:11;101084.81;;;14.19;100.00
8286;BME280;4181;43.416;24.598;2022-10-16T06:28:38;101090.84;;;14.54;100.00
8286;BME280;4181;43.416;24.598;2022-10-16T06:31:06;101081.94;;;14.90;100.00
8286;BME280;4181;43.416;24.598;2022-10-16T06:33:32;101081.81;;;15.23;100.00
8286;BME280;4181;43.416;24.598;2022-10-16T06:36:03;101079.38;;;15.27;100.00
8286;BME280;4181;43.416;24.598;2022-10-16T06:38:29;101096.47;;;15.34;100.00
8286;BME280;4181;43.416;24.598;2022-10-16T06:40:56;101094.38;;;15.41;100.00
8286;BME280;4181;43.416;24.598;2022-10-16T06:43:21;101089.53;;;15.80;100.00
8286;BME280;4181;43.416;24.598;2022-10-16T06:45:54;101088.09;;;16.09;100.00
8286;BME280;4181;43.416;24.598;2022-10-16T06:48:20;101092.88;;;16.23;100.00
8286;BME280;4181;43.416;24.598;2022-10-16T06:53:35;101094.75;;;16.55;100.00
8286;BME280;4181;43.416;24.598;2022-10-16T06:56:27;101088.88;;;16.98;100.00
8286;BME280;4181;43.416;24.598;2022-10-16T06:58:54;101074.38;;;17.22;100.00
8286;BME280;4181;43.416;24.598;2022-10-16T07:01:22;101083.50;;;17.43;100.00
8286;BME280;4181;43.416;24.598;2022-10-16T07:03:49;101080.22;;;17.66;100.00
8286;BME280;4181;43.416;24.598;2022-10-16T07:06:17;101079.16;;;17.87;100.00
8286;BME280;4181;43.416;24.598;2022-10-16T07:08:44;101093.47;;;18.14;100.00
8286;BME280;4181;43.416;24.598;2022-10-16T07:11:13;101084.06;;;18.35;100.00
8286;BME280;4181;43.416;24.598;2022-10-16T07:13:40;101082.38;;;18.54;100.00
8286;BME280;4181;43.416;24.598;2022-10-16T07:16:12;101083.97;;;18.75;100.00
8286;BME280;4181;43.416;24.598;2022-10-16T07:18:38;101087.81;;;18.84;100.00
8286;BME280;4181;43.416;24.598;2022-10-16T07:21:07;101080.19;;;19.15;100.00
8286;BME280;4181;43.416;24.598;2022-10-16T07:23:33;101065.72;;;19.33;100.00
8286;BME280;4181;43.416;24.598;2022-10-16T07:25:59;101070.75;;;19.65;100.00
8286;BME280;4181;43.416;24.598;2022-10-16T07:28:24;101080.53;;;19.91;100.00
8286;BME280;4181;43.416;24.598;2022-10-16T07:30:50;101063.72;;;20.11;100.00
8286;BME280;4181;43.416;24.598;2022-10-16T07:33:15;101068.78;;;20.04;100.00
8286;BME280;4181;43.416;24.598;2022-10-16T07:36:07;101071.19;;;20.16;100.00
8286;BME280;4181;43.416;24.598;2022-10-16T07:38:33;101062.13;;;20.34;100.00
8286;BME280;4181;43.416;24.598;2022-10-16T07:41:06;101062.22;;;20.52;100.00
8286;BME280;4181;43.416;24.598;2022-10-16T07:43:32;101063.34;;;20.51;100.00
8286;BME280;4181;43.416;24.598;2022-10-16T07:45:59;101059.56;;;20.66;100.00
8286;BME280;4181;43.416;24.598;2022-10-16T07:48:30;101058.59;;;20.75;100.00
8286;BME280;4181;43.416;24.598;2022-10-16T07:51:01;101064.56;;;20.87;100.00
8286;BME280;4181;43.416;24.598;2022-10-16T07:53:27;101071.69;;;20.93;100.00
8286;BME280;4181;43.416;24.598;2022-10-16T07:55:59;101063.84;;;21.00;100.00
8286;BME280;4181;43.416;24.598;2022-10-16T07:58:25;101066.72;;;21.14;100.00
8286;BME280;4181;43.416;24.598;2022-10-16T08:00:51;101053.91;;;21.18;100.00
8286;BME280;4181;43.416;24.598;2022-10-16T08:03:16;101058.25;;;21.24;100.00
8286;BME280;4181;43.416;24.598;2022-10-16T08:05:42;101055.50;;;21.43;100.00
8286;BME280;4181;43.416;24.598;2022-10-16T08:08:12;101056.13;;;21.72;100.00
8286;BME280;4181;43.416;24.598;2022-10-16T08:10:38;101050.25;;;21.92;100.00
8286;BME280;4181;43.416;24.598;2022-10-16T08:13:03;101043.94;;;22.18;100.00
8286;BME280;4181;43.416;24.598;2022-10-16T08:15:29;101056.97;;;22.36;100.00
8286;BME280;4181;43.416;24.598;2022-10-16T08:18:01;101053.06;;;22.51;100.00
8286;BME280;4181;43.416;24.598;2022-10-16T08:20:28;101058.09;;;22.49;100.00
8286;BME280;4181;43.416;24.598;2022-10-16T08:22:54;101045.66;;;22.74;100.00
8286;BME280;4181;43.416;24.598;2022-10-16T08:25:22;101054.41;;;22.94;100.00
8286;BME280;4181;43.416;24.598;2022-10-16T08:27:47;101037.88;;;23.11;100.00
8286;BME280;4181;43.416;24.598;2022-10-16T08:30:14;101042.50;;;23.29;100.00
8286;BME280;4181;43.416;24.598;2022-10-16T08:32:40;101049.47;;;23.40;100.00
8286;BME280;4181;43.416;24.598;2022-10-16T08:35:09;101051.63;;;23.43;100.00
8286;BME280;4181;43.416;24.598;2022-10-16T08:37:37;101039.50;;;23.39;100.00
8286;BME280;4181;43.416;24.598;2022-10-16T08:40:05;101050.19;;;23.46;100.00
8286;BME280;4181;43.416;24.598;2022-10-16T08:50:25;101040.66;;;24.05;100.00
8286;BME280;4181;43.416;24.598;2022-10-16T08:52:53;101045.72;;;24.03;100.00
8286;BME280;4181;43.416;24.598;2022-10-16T08:58:14;101090.16;;;22.60;100.00
8286;BME280;4181;43.416;24.598;2022-10-16T09:00:41;101103.66;;;21.89;100.00
8286;BME280;4181;43.416;24.598;2022-10-16T09:12:03;101111.78;;;21.85;100.00
8286;BME280;4181;43.416;24.598;2022-10-16T09:18:02;101140.28;;;21.11;100.00
8286;BME280;4181;43.416;24.598;2022-10-16T09:20:31;101127.31;;;21.07;100.00
8286;BME280;4181;43.416;24.598;2022-10-16T09:23:10;101123.09;;;21.52;100.00
8286;BME280;4181;43.416;24.598;2022-10-16T09:25:39;101095.25;;;22.26;100.00
8286;BME280;4181;43.416;24.598;2022-10-16T09:28:07;101098.66;;;22.23;100.00
8286;BME280;4181;43.416;24.598;2022-10-16T09:30:34;101107.09;;;21.99;100.00
8286;BME280;4181;43.416;24.598;2022-10-16T09:33:00;101108.84;;;21.77;100.00
8286;BME280;4181;43.416;24.598;2022-10-16T09:35:36;101105.84;;;21.55;100.00
8286;BME280;4181;43.416;24.598;2022-10-16T09:38:02;101101.50;;;21.86;100.00
8286;BME280;4181;43.416;24.598;2022-10-16T09:40:36;101106.44;;;21.89;100.00
8286;BME280;4181;43.416;24.598;2022-10-16T09:46:02;101115.19;;;21.03;100.00
8286;BME280;4181;43.416;24.598;2022-10-16T09:48:36;101122.28;;;20.85;100.00
8286;BME280;4181;43.416;24.598;2022-10-16T09:51:04;101102.63;;;21.48;100.00
8286;BME280;4181;43.416;24.598;2022-10-16T09:53:44;101092.22;;;21.72;100.00
8286;BME280;4181;43.416;24.598;2022-10-16T09:56:20;101108.91;;;21.53;100.00
8286;BME280;4181;43.416;24.598;2022-10-16T09:58:51;101085.66;;;21.49;100.00
8286;BME280;4181;43.416;24.598;2022-10-16T10:01:18;101093.16;;;21.67;100.00
8286;BME280;4181;43.416;24.598;2022-10-16T10:03:44;101081.00;;;22.14;100.00
8286;BME280;4181;43.416;24.598;2022-10-16T10:06:25;101082.44;;;22.11;100.00
8286;BME280;4181;43.416;24.598;2022-10-16T10:08:55;101094.28;;;21.48;100.00
8286;BME280;4181;43.416;24.598;2022-10-16T10:12:00;101089.75;;;21.52;100.00
8286;BME280;4181;43.416;24.598;2022-10-16T10:14:31;101078.56;;;21.94;100.00
8286;BME280;4181;43.416;24.598;2022-10-16T10:17:21;101086.84;;;21.43;100.00
8286;BME280;4181;43.416;24.598;2022-10-16T10:22:42;101072.66;;;21.82;100.00
8286;BME280;4181;43.416;24.598;2022-10-16T10:25:12;101079.66;;;21.79;100.00
8286;BME280;4181;43.416;24.598;2022-10-16T10:38:52;101062.13;;;22.43;100.00
8286;BME280;4181;43.416;24.598;2022-10-16T10:41:56;101058.09;;;22.49;100.00
8286;BME280;4181;43.416;24.598;2022-10-16T10:52:48;101087.38;;;21.08;100.00
8286;BME280;4181;43.416;24.598;2022-10-16T11:00:42;101071.78;;;21.49;100.00
8286;BME280;4181;43.416;24.598;2022-10-16T11:06:18;101056.09;;;21.40;100.00
8286;BME280;4181;43.416;24.598;2022-10-16T11:11:49;101031.81;;;22.28;100.00
8286;BME280;4181;43.416;24.598;2022-10-16T11:14:19;101039.91;;;22.11;100.00
8286;BME280;4181;43.416;24.598;2022-10-16T11:17:42;101049.84;;;21.98;100.00
8286;BME280;4181;43.416;24.598;2022-10-16T11:20:05;101037.97;;;21.61;100.00
8286;BME280;4181;43.416;24.598;2022-10-16T11:27:59;101034.94;;;22.67;100.00
8286;BME280;4181;43.416;24.598;2022-10-16T11:30:31;101050.72;;;22.12;100.00
8286;BME280;4181;43.416;24.598;2022-10-16T11:33:20;101049.44;;;21.73;100.00
8286;BME280;4181;43.416;24.598;2022-10-16T11:41:34;101037.69;;;22.26;100.00
8286;BME280;4181;43.416;24.598;2022-10-16T11:44:16;101035.41;;;22.42;100.00
8286;BME280;4181;43.416;24.598;2022-10-16T11:49:31;101045.47;;;21.79;100.00
8286;BME280;4181;43.416;24.598;2022-10-16T11:57:14;101028.81;;;22.24;100.00
8286;BME280;4181;43.416;24.598;2022-10-16T12:00:04;101043.38;;;21.89;100.00
8286;BME280;4181;43.416;24.598;2022-10-16T12:03:00;101058.56;;;21.60;100.00
8286;BME280;4181;43.416;24.598;2022-10-16T12:08:21;101038.88;;;21.75;100.00
8286;BME280;4181;43.416;24.598;2022-10-16T12:10:48;101043.66;;;21.88;100.00
8286;BME280;4181;43.416;24.598;2022-10-16T12:18:46;101056.28;;;21.62;100.00
8286;BME280;4181;43.416;24.598;2022-10-16T12:21:13;101053.81;;;21.79;100.00
8286;BME280;4181;43.416;24.598;2022-10-16T12:23:52;101045.09;;;21.85;100.00
8286;BME280;4181;43.416;24.598;2022-10-16T12:26:25;101041.94;;;22.05;100.00
8286;BME280;4181;43.416;24.598;2022-10-16T12:28:55;101038.16;;;22.15;100.00
8286;BME280;4181;43.416;24.598;2022-10-16T12:31:21;101050.47;;;21.95;100.00
8286;BME280;4181;43.416;24.598;2022-10-16T12:33:58;101049.06;;;21.98;100.00
8286;BME280;4181;43.416;24.598;2022-10-16T12:36:30;101038.34;;;22.05;100.00
8286;BME280;4181;43.416;24.598;2022-10-16T12:38:56;101046.00;;;22.13;100.00
8286;BME280;4181;43.416;24.598;2022-10-16T12:41:33;101062.16;;;21.42;100.00
8286;BME280;4181;43.416;24.598;2022-10-16T12:44:00;101074.81;;;20.87;100.00
8286;BME280;4181;43.416;24.598;2022-10-16T12:51:53;101054.88;;;21.46;100.00
8286;BME280;4181;43.416;24.598;2022-10-16T12:54:31;101084.03;;;20.82;100.00
8286;BME280;4181;43.416;24.598;2022-10-16T12:59:54;101076.56;;;20.83;100.00
8286;BME280;4181;43.416;24.598;2022-10-16T13:02:52;101081.69;;;20.47;100.00
8286;BME280;4181;43.416;24.598;2022-10-16T13:05:26;101077.31;;;20.41;100.00
8286;BME280;4181;43.416;24.598;2022-10-16T13:11:08;101083.22;;;20.30;100.00
8286;BME280;4181;43.416;24.598;2022-10-16T13:16:24;101090.78;;;20.24;100.00
8286;BME280;4181;43.416;24.598;2022-10-16T13:24:06;101091.94;;;20.18;100.00
8286;BME280;4181;43.416;24.598;2022-10-16T13:26:48;101096.28;;;20.29;100.00
8286;BME280;4181;43.416;24.598;2022-10-16T13:29:15;101091.34;;;20.26;100.00
8286;BME280;4181;43.416;24.598;2022-10-16T13:31:42;101092.19;;;20.22;100.00
8286;BME280;4181;43.416;24.598;2022-10-16T13:34:14;101093.50;;;20.29;100.00
8286;BME280;4181;43.416;24.598;2022-10-16T13:36:47;101101.25;;;20.32;100.00
8286;BME280;4181;43.416;24.598;2022-10-16T13:39:33;101091.53;;;20.30;100.00
8286;BME280;4181;43.416;24.598;2022-10-16T13:42:14;101096.81;;;20.31;100.00
8286;BME280;4181;43.416;24.598;2022-10-16T13:44:43;101081.69;;;20.47;100.00
8286;BME280;4181;43.416;24.598;2022-10-16T13:47:20;101084.16;;;20.72;100.00
8286;BME280;4181;43.416;24.598;2022-10-16T13:50:01;101074.59;;;20.83;100.00
8286;BME280;4181;43.416;24.598;2022-10-16T13:52:27;101082.44;;;21.00;100.00
8286;BME280;4181;43.416;24.598;2022-10-16T13:54:52;101084.72;;;20.98;100.00
8286;BME280;4181;43.416;24.598;2022-10-16T13:57:22;101090.38;;;20.64;100.00
8286;BME280;4181;43.416;24.598;2022-10-16T13:59:48;101090.28;;;20.46;100.00
8286;BME280;4181;43.416;24.598;2022-10-16T14:02:35;101108.06;;;20.11;100.00
8286;BME280;4181;43.416;24.598;2022-10-16T14:05:04;101105.19;;;20.26;100.00
8286;BME280;4181;43.416;24.598;2022-10-16T14:07:34;101107.38;;;20.29;100.00
8286;BME280;4181;43.416;24.598;2022-10-16T14:10:30;101101.59;;;20.26;100.00
8286;BME280;4181;43.416;24.598;2022-10-16T14:13:03;101108.38;;;20.04;100.00
8286;BME280;4181;43.416;24.598;2022-10-16T14:15:31;101112.06;;;19.95;100.00
8286;BME280;4181;43.416;24.598;2022-10-16T14:17:58;101114.28;;;19.93;100.00
8286;BME280;4181;43.416;24.598;2022-10-16T14:20:30;101116.50;;;19.96;100.00
8286;BME280;4181;43.416;24.598;2022-10-16T14:23:03;101127.63;;;19.91;100.00
8286;BME280;4181;43.416;24.598;2022-10-16T14:25:31;101123.44;;;19.93;100.00
8286;BME280;4181;43.416;24.598;2022-10-16T14:27:58;101123.16;;;19.95;100.00
8286;BME280;4181;43.416;24.598;2022-10-16T14:30:26;101122.69;;;19.83;100.00
8286;BME280;4181;43.416;24.598;2022-10-16T14:33:06;101127.16;;;19.79;100.00
8286;BME280;4181;43.416;24.598;2022-10-16T14:35:38;101117.19;;;19.78;100.00
8286;BME280;4181;43.416;24.598;2022-10-16T14:38:05;101126.09;;;19.70;100.00
8286;BME280;4181;43.416;24.598;2022-10-16T14:40:35;101130.03;;;19.64;100.00
8286;BME280;4181;43.416;24.598;2022-10-16T14:43:02;101128.41;;;19.58;100.00
8286;BME280;4181;43.416;24.598;2022-10-16T14:45:31;101132.91;;;19.49;100.00
8286;BME280;4181;43.416;24.598;2022-10-16T14:48:02;101126.91;;;19.32;100.00
8286;BME280;4181;43.416;24.598;2022-10-16T14:50:29;101137.41;;;19.35;100.00
8286;BME280;4181;43.416;24.598;2022-10-16T14:52:55;101137.16;;;19.21;100.00
8286;BME280;4181;43.416;24.598;2022-10-16T14:55:20;101142.97;;;19.20;100.00
8286;BME280;4181;43.416;24.598;2022-10-16T14:57:46;101143.03;;;19.05;100.00
8286;BME280;4181;43.416;24.598;2022-10-16T15:00:19;101147.50;;;18.96;100.00
8286;BME280;4181;43.416;24.598;2022-10-16T15:02:46;101142.56;;;18.87;100.00
8286;BME280;4181;43.416;24.598;2022-10-16T15:05:22;101146.16;;;18.83;100.00
8286;BME280;4181;43.416;24.598;2022-10-16T15:07:49;101141.22;;;18.75;100.00
8286;BME280;4181;43.416;24.598;2022-10-16T15:10:16;101155.91;;;18.60;100.00